Time;durP1;ratioP1;P1;durP2;ratioP2;P2;SDS_P1;SDS_P2;PMS_P1;PMS_P2;Temp;Humidity;BMP_temperature;BMP_pressure;BME280_temperature;BME280_humidity;BME280_pressure;Samples;Min_cycle;Max_cycle;Signal;HPM_P1;HPM_P2
2020/12/12 00:00:54;;;;;;;7.72;6.85;;;5.00;99.90;;;;;;5028186;28;20031;-74
2020/12/12 00:03:20;;;;;;;9.43;7.72;;;5.00;99.90;;;;;;5024599;28;20021;-75
2020/12/12 00:05:45;;;;;;;7.68;6.88;;;5.00;99.90;;;;;;5034168;28;20344;-74
2020/12/12 00:08:11;;;;;;;13.18;7.55;;;5.00;99.90;;;;;;5036217;28;20443;-74
2020/12/12 00:10:36;;;;;;;8.88;7.32;;;5.10;99.90;;;;;;5027735;28;20134;-74
2020/12/12 00:13:02;;;;;;;10.23;8.48;;;5.10;99.90;;;;;;5032115;28;20025;-75
2020/12/12 00:15:28;;;;;;;11.65;8.85;;;5.30;99.90;;;;;;5030771;28;20538;-74
2020/12/12 00:17:54;;;;;;;12.80;9.38;;;5.40;99.90;;;;;;5029398;28;20620;-74
2020/12/12 00:20:19;;;;;;;12.95;10.52;;;5.60;99.90;;;;;;5027022;28;20022;-73
2020/12/12 00:22:45;;;;;;;13.13;10.48;;;5.60;99.90;;;;;;5029621;28;20414;-73
2020/12/12 00:25:11;;;;;;;13.90;10.90;;;5.50;99.90;;;;;;5027245;28;20089;-73
2020/12/12 00:27:36;;;;;;;14.55;11.27;;;5.20;99.90;;;;;;5030819;28;20170;-74
2020/12/12 00:30:04;;;;;;;14.50;10.63;;;5.10;99.90;;;;;;5030555;28;20042;-73
2020/12/12 00:32:30;;;;;;;14.35;9.93;;;4.90;99.90;;;;;;5025913;28;20053;-73
2020/12/12 00:34:56;;;;;;;11.10;9.70;;;4.90;99.90;;;;;;5025171;28;20075;-73
2020/12/12 00:37:22;;;;;;;10.80;9.70;;;4.80;99.90;;;;;;5009109;28;20389;-75
2020/12/12 00:39:49;;;;;;;15.05;10.45;;;4.80;99.90;;;;;;5020129;28;20121;-73
2020/12/12 00:42:15;;;;;;;16.15;11.13;;;4.80;99.90;;;;;;5015766;28;20021;-73
2020/12/12 00:44:40;;;;;;;12.77;10.90;;;4.80;99.90;;;;;;5025955;28;20120;-72
2020/12/12 00:47:06;;;;;;;15.55;10.30;;;4.80;99.90;;;;;;5010629;28;20022;-75
2020/12/12 00:49:32;;;;;;;13.60;10.77;;;4.80;99.90;;;;;;5023805;28;20032;-74
2020/12/12 00:51:57;;;;;;;12.18;10.30;;;4.80;99.90;;;;;;5029448;28;20105;-73
2020/12/12 00:54:23;;;;;;;15.02;11.13;;;5.00;99.90;;;;;;5020227;28;20080;-73
2020/12/12 00:56:49;;;;;;;13.43;11.13;;;5.20;99.90;;;;;;5013546;28;20029;-75
2020/12/12 00:59:14;;;;;;;13.32;11.05;;;5.40;99.90;;;;;;5029423;28;20010;-73
2020/12/12 01:01:40;;;;;;;17.40;12.27;;;5.60;99.90;;;;;;5047429;28;20546;-74
2020/12/12 01:04:06;;;;;;;12.35;10.82;;;5.60;99.90;;;;;;5005760;28;20072;-74
2020/12/12 01:06:31;;;;;;;18.23;11.02;;;5.70;99.90;;;;;;5034521;28;20026;-74
2020/12/12 01:08:57;;;;;;;13.45;9.77;;;5.60;99.90;;;;;;5022812;28;20035;-73
2020/12/12 01:11:22;;;;;;;13.45;10.38;;;5.60;99.90;;;;;;5023118;28;20034;-74
2020/12/12 01:13:48;;;;;;;12.98;11.00;;;5.40;99.90;;;;;;5030454;28;20118;-72
2020/12/12 01:16:15;;;;;;;12.77;10.00;;;5.10;99.90;;;;;;5021200;28;20029;-71
2020/12/12 01:18:41;;;;;;;14.18;10.70;;;5.10;99.90;;;;;;5026634;28;20056;-71
2020/12/12 01:21:07;;;;;;;11.85;10.10;;;5.00;99.90;;;;;;5014396;28;20041;-72
2020/12/12 01:23:33;;;;;;;12.07;10.13;;;4.90;99.90;;;;;;5008881;28;20018;-71
2020/12/12 01:25:59;;;;;;;11.98;9.98;;;4.90;99.90;;;;;;5010351;28;20518;-75
2020/12/12 01:28:25;;;;;;;11.98;9.60;;;5.00;99.90;;;;;;5030261;28;20060;-70
2020/12/12 01:30:54;;;;;;;13.98;10.75;;;4.90;99.90;;;;;;5027692;28;20075;-71
2020/12/12 01:33:21;;;;;;;11.60;9.35;;;4.90;99.90;;;;;;5018156;28;20037;-71
2020/12/12 01:35:47;;;;;;;11.32;9.32;;;5.00;99.90;;;;;;5029180;28;20055;-72
2020/12/12 01:38:12;;;;;;;12.43;9.90;;;5.00;99.90;;;;;;5033803;28;20064;-71
2020/12/12 01:40:38;;;;;;;12.02;9.30;;;4.90;99.90;;;;;;5026008;28;20018;-72
2020/12/12 01:43:04;;;;;;;14.27;10.25;;;5.00;99.90;;;;;;5033381;28;20034;-72
2020/12/12 01:45:30;;;;;;;10.50;8.85;;;4.90;99.90;;;;;;5020551;28;20030;-71
2020/12/12 01:47:57;;;;;;;11.23;8.70;;;5.00;99.90;;;;;;5048187;28;20029;-72
2020/12/12 01:50:24;;;;;;;11.35;9.98;;;5.00;99.90;;;;;;5031600;28;20017;-70
2020/12/12 01:52:51;;;;;;;12.10;10.02;;;5.00;99.90;;;;;;5022065;28;20091;-72
2020/12/12 01:55:20;;;;;;;12.88;10.05;;;5.00;99.90;;;;;;5026800;28;20152;-71
2020/12/12 01:57:50;;;;;;;12.45;10.73;;;4.90;99.90;;;;;;5033821;28;20500;-72
2020/12/12 02:00:16;;;;;;;11.27;9.65;;;5.00;99.90;;;;;;5013047;28;20029;-72
2020/12/12 02:02:48;;;;;;;11.57;10.02;;;5.00;99.90;;;;;;5031105;28;20028;-71
2020/12/12 02:05:39;;;;;;;12.40;10.05;;;5.00;99.90;;;;;;5009005;28;20108;-71
2020/12/12 02:08:14;;;;;;;12.35;9.70;;;4.90;99.90;;;;;;5040680;28;20041;-71
2020/12/12 02:10:44;;;;;;;12.73;10.32;;;5.00;99.90;;;;;;5034348;28;20045;-71
2020/12/12 02:13:11;;;;;;;10.93;9.27;;;5.00;99.90;;;;;;5036553;28;20096;-71
2020/12/12 02:15:38;;;;;;;11.00;9.18;;;5.00;99.90;;;;;;5036707;28;20030;-71
2020/12/12 02:18:05;;;;;;;11.80;9.63;;;5.20;99.90;;;;;;5029066;28;20092;-71
2020/12/12 02:20:31;;;;;;;12.18;9.57;;;5.30;99.90;;;;;;5035043;28;20389;-71
2020/12/12 02:22:57;;;;;;;12.93;9.57;;;5.40;99.90;;;;;;5002587;28;20041;-72
2020/12/12 02:25:23;;;;;;;15.30;9.23;;;5.50;99.90;;;;;;5031036;28;20029;-72
2020/12/12 02:27:54;;;;;;;12.65;10.05;;;5.60;99.90;;;;;;5013573;28;20037;-72
2020/12/12 02:30:20;;;;;;;12.82;10.15;;;5.50;99.90;;;;;;5031544;28;20018;-71
2020/12/12 02:32:46;;;;;;;13.07;10.60;;;5.60;99.90;;;;;;5023727;28;20030;-71
2020/12/12 02:35:11;;;;;;;11.82;9.50;;;5.50;99.90;;;;;;5009619;28;20025;-72
2020/12/12 02:37:37;;;;;;;12.52;10.07;;;5.40;99.90;;;;;;5029157;28;20022;-73
2020/12/12 02:40:05;;;;;;;11.68;10.40;;;5.40;99.90;;;;;;5026118;28;20112;-72
2020/12/12 02:42:31;;;;;;;15.45;11.30;;;5.20;99.90;;;;;;5026928;28;20064;-72
2020/12/12 02:44:56;;;;;;;9.93;8.90;;;5.10;99.90;;;;;;5026010;28;20135;-72
2020/12/12 02:47:22;;;;;;;16.20;10.10;;;5.00;99.90;;;;;;5026654;28;20033;-72
2020/12/12 02:50:11;;;;;;;11.95;9.93;;;4.90;99.90;;;;;;5034482;28;20350;-72
2020/12/12 02:52:38;;;;;;;13.13;9.80;;;4.90;99.90;;;;;;5022208;28;20075;-72
2020/12/12 02:55:05;;;;;;;11.90;9.80;;;4.80;99.90;;;;;;5034529;28;20044;-72
2020/12/12 02:57:32;;;;;;;11.98;9.45;;;4.80;99.90;;;;;;5027084;28;20061;-73
2020/12/12 02:59:58;;;;;;;12.85;10.00;;;4.80;99.90;;;;;;5026385;28;20026;-74
2020/12/12 03:02:24;;;;;;;12.18;10.13;;;4.70;99.90;;;;;;5026310;28;20097;-72
2020/12/12 03:04:49;;;;;;;12.23;9.80;;;4.70;99.90;;;;;;5026217;28;20539;-72
2020/12/12 03:07:15;;;;;;;10.50;9.15;;;4.70;99.90;;;;;;5028589;28;20043;-71
2020/12/12 03:09:41;;;;;;;12.70;10.35;;;4.70;99.90;;;;;;5031835;28;20029;-71
2020/12/12 03:12:06;;;;;;;15.38;11.10;;;4.90;99.90;;;;;;5033608;28;20040;-72
2020/12/12 03:14:32;;;;;;;16.33;11.55;;;4.80;99.90;;;;;;5017479;28;20027;-71
2020/12/12 03:16:57;;;;;;;14.70;11.48;;;4.90;99.90;;;;;;5034837;28;20495;-71
2020/12/12 03:19:23;;;;;;;13.65;10.85;;;4.80;99.90;;;;;;5032915;28;20040;-72
2020/12/12 03:21:49;;;;;;;15.13;10.55;;;4.80;99.90;;;;;;5033808;28;20548;-71
2020/12/12 03:24:14;;;;;;;15.02;10.55;;;4.80;99.90;;;;;;5034121;28;20025;-71
2020/12/12 03:26:40;;;;;;;12.75;10.38;;;4.90;99.90;;;;;;5034159;28;20026;-72
2020/12/12 03:29:05;;;;;;;11.77;9.70;;;4.90;99.90;;;;;;5030702;28;20428;-71
2020/12/12 03:31:31;;;;;;;11.98;9.07;;;4.90;99.90;;;;;;5043664;28;20104;-72
2020/12/12 03:33:56;;;;;;;11.02;9.25;;;4.80;99.90;;;;;;5027139;28;20033;-71
2020/12/12 03:36:22;;;;;;;11.85;9.93;;;4.80;99.90;;;;;;5025782;28;20076;-71
2020/12/12 03:38:48;;;;;;;11.93;9.20;;;4.80;99.90;;;;;;5038263;28;20025;-72
2020/12/12 03:41:13;;;;;;;13.15;10.25;;;4.80;99.90;;;;;;5034204;28;20080;-72
2020/12/12 03:43:39;;;;;;;14.55;9.77;;;4.90;99.90;;;;;;5034141;28;20021;-72
2020/12/12 03:46:05;;;;;;;13.68;9.93;;;4.80;99.90;;;;;;5003101;28;20029;-71
2020/12/12 03:48:30;;;;;;;13.50;9.27;;;4.90;99.90;;;;;;5032402;28;20049;-72
2020/12/12 03:50:56;;;;;;;12.90;9.88;;;4.90;99.90;;;;;;5024905;28;20159;-70
2020/12/12 03:53:21;;;;;;;10.30;8.80;;;4.90;99.90;;;;;;5028480;28;20050;-71
2020/12/12 03:55:47;;;;;;;14.52;10.23;;;5.00;99.90;;;;;;5031627;28;20033;-72
2020/12/12 03:58:13;;;;;;;12.93;11.27;;;5.00;99.90;;;;;;5035560;28;20018;-71
2020/12/12 04:00:38;;;;;;;15.40;11.73;;;5.20;99.90;;;;;;5021842;28;20028;-74
2020/12/12 04:03:04;;;;;;;14.65;10.43;;;5.40;99.90;;;;;;5002666;28;20125;-72
2020/12/12 04:05:29;;;;;;;15.75;10.82;;;5.30;99.90;;;;;;5024824;28;20049;-72
2020/12/12 04:07:55;;;;;;;11.40;10.20;;;5.10;99.90;;;;;;5037036;28;20025;-72
2020/12/12 04:10:21;;;;;;;14.93;11.10;;;5.00;99.90;;;;;;4997939;28;20029;-71
2020/12/12 04:12:46;;;;;;;14.52;9.98;;;4.90;99.90;;;;;;5022296;28;20397;-73
2020/12/12 04:15:12;;;;;;;14.93;10.82;;;4.90;99.90;;;;;;5024765;28;20013;-72
2020/12/12 04:17:37;;;;;;;12.45;9.98;;;4.90;99.90;;;;;;5025062;28;20030;-72
2020/12/12 04:20:03;;;;;;;19.02;11.13;;;4.80;99.90;;;;;;5015517;28;20084;-70
2020/12/12 04:22:29;;;;;;;14.27;10.73;;;4.90;99.90;;;;;;5005195;28;20026;-70
2020/12/12 04:24:54;;;;;;;12.20;9.85;;;4.90;99.90;;;;;;5005563;28;20065;-70
2020/12/12 04:27:20;;;;;;;11.95;9.10;;;4.90;99.90;;;;;;5014961;28;20499;-71
2020/12/12 04:29:45;;;;;;;12.15;9.07;;;5.30;99.90;;;;;;5019195;28;20045;-69
2020/12/12 04:32:11;;;;;;;15.43;8.25;;;5.20;99.90;;;;;;5028485;28;20033;-71
2020/12/12 04:34:37;;;;;;;11.32;8.30;;;5.50;99.90;;;;;;5013860;28;20025;-70
2020/12/12 04:37:02;;;;;;;11.90;8.73;;;5.30;99.90;;;;;;5037117;28;20116;-71
2020/12/12 04:39:28;;;;;;;10.07;8.95;;;5.30;99.90;;;;;;5021336;28;20408;-71
2020/12/12 04:41:55;;;;;;;10.60;8.98;;;5.30;99.90;;;;;;5024142;28;20029;-69
2020/12/12 04:44:21;;;;;;;9.40;8.23;;;5.20;99.90;;;;;;5018310;28;20083;-69
2020/12/12 04:46:47;;;;;;;11.05;9.20;;;5.10;99.90;;;;;;5024407;28;20037;-69
2020/12/12 04:49:13;;;;;;;10.25;8.40;;;5.00;99.90;;;;;;5026907;28;20092;-69
2020/12/12 04:51:39;;;;;;;8.88;7.97;;;5.00;99.90;;;;;;5008384;28;20030;-69
2020/12/12 04:54:08;;;;;;;9.52;7.80;;;5.00;99.90;;;;;;5022452;28;20032;-69
2020/12/12 04:56:35;;;;;;;11.70;8.93;;;4.90;99.90;;;;;;5028364;28;20099;-70
2020/12/12 04:59:03;;;;;;;9.10;8.10;;;5.00;99.90;;;;;;5015460;28;20037;-70
2020/12/12 05:01:32;;;;;;;9.35;8.20;;;5.10;99.90;;;;;;5026836;28;20028;-70
2020/12/12 05:04:01;;;;;;;13.10;10.25;;;5.00;99.90;;;;;;5023483;28;20399;-69
2020/12/12 05:06:30;;;;;;;11.45;9.18;;;5.00;99.90;;;;;;5019563;28;20109;-70
2020/12/12 05:08:56;;;;;;;10.93;8.25;;;5.00;99.90;;;;;;5037339;28;20026;-70
2020/12/12 05:11:25;;;;;;;9.80;8.05;;;4.90;99.90;;;;;;5008257;28;20045;-70
2020/12/12 05:13:52;;;;;;;9.90;7.80;;;4.90;99.90;;;;;;5021348;28;20029;-69
2020/12/12 05:16:19;;;;;;;9.80;8.80;;;5.10;99.90;;;;;;5028156;28;20034;-71
2020/12/12 05:18:45;;;;;;;10.65;8.68;;;5.20;99.90;;;;;;5023832;28;20045;-70
2020/12/12 05:21:12;;;;;;;11.77;8.27;;;5.20;99.90;;;;;;5028180;28;20026;-71
2020/12/12 05:23:38;;;;;;;11.43;8.77;;;5.20;99.90;;;;;;5026964;28;20080;-70
2020/12/12 05:26:04;;;;;;;10.00;8.35;;;5.20;99.90;;;;;;5017650;28;20492;-71
2020/12/12 05:28:29;;;;;;;11.45;8.55;;;5.00;99.90;;;;;;5028626;28;20026;-71
2020/12/12 05:30:55;;;;;;;11.15;8.40;;;5.00;99.90;;;;;;5027855;28;20030;-70
2020/12/12 05:33:24;;;;;;;12.02;8.15;;;4.90;99.90;;;;;;5047746;23;20464;-73
2020/12/12 05:35:50;;;;;;;8.35;7.30;;;5.20;99.90;;;;;;5018112;28;20087;-72
2020/12/12 05:38:16;;;;;;;10.68;7.82;;;5.20;99.90;;;;;;5035398;28;20392;-71
2020/12/12 05:40:44;;;;;;;9.35;8.32;;;5.20;99.90;;;;;;5035213;28;20040;-71
2020/12/12 05:43:11;;;;;;;10.00;8.13;;;5.10;99.90;;;;;;5023153;28;20489;-71
2020/12/12 05:45:38;;;;;;;9.90;7.88;;;5.30;99.90;;;;;;5016684;28;20022;-71
2020/12/12 05:48:05;;;;;;;10.05;8.15;;;5.20;99.90;;;;;;5016739;28;20072;-73
2020/12/12 05:50:31;;;;;;;9.43;7.72;;;5.10;99.90;;;;;;5015507;28;20033;-72
2020/12/12 05:52:57;;;;;;;10.77;8.68;;;5.10;99.90;;;;;;4997665;28;20018;-72
2020/12/12 05:55:29;;;;;;;11.05;8.38;;;5.00;99.90;;;;;;5015122;28;20033;-72
2020/12/12 05:57:56;;;;;;;11.32;8.32;;;5.10;99.90;;;;;;5015213;28;20034;-72
2020/12/12 06:00:23;;;;;;;8.95;7.68;;;5.00;99.90;;;;;;5019664;28;20026;-72
2020/12/12 06:03:18;;;;;;;9.98;8.70;;;5.00;99.90;;;;;;5016908;28;20030;-72
2020/12/12 06:05:48;;;;;;;11.68;8.65;;;5.00;99.90;;;;;;4964658;28;20445;-73
2020/12/12 06:08:26;;;;;;;9.25;7.30;;;5.00;99.90;;;;;;5018351;28;20481;-72
2020/12/12 06:11:01;;;;;;;8.73;7.72;;;5.00;99.90;;;;;;5005366;28;20471;-72
2020/12/12 06:13:33;;;;;;;10.02;8.02;;;5.00;99.90;;;;;;5015753;28;20069;-73
2020/12/12 06:16:01;;;;;;;10.75;7.90;;;5.10;99.90;;;;;;5029416;28;20053;-72
2020/12/12 06:18:31;;;;;;;8.25;7.00;;;5.10;99.90;;;;;;5003858;28;20034;-72
2020/12/12 06:21:02;;;;;;;10.82;7.72;;;5.10;99.90;;;;;;4997674;28;20052;-71
2020/12/12 06:23:29;;;;;;;9.75;8.40;;;5.20;99.90;;;;;;5014835;28;20061;-71
2020/12/12 06:25:54;;;;;;;10.20;7.38;;;5.20;99.90;;;;;;5015126;28;20112;-72
2020/12/12 06:28:24;;;;;;;10.13;8.13;;;5.20;99.90;;;;;;5014824;28;20049;-71
2020/12/12 06:30:50;;;;;;;8.48;7.32;;;5.20;99.90;;;;;;5014605;28;20022;-71
2020/12/12 06:33:16;;;;;;;8.40;7.40;;;5.30;99.90;;;;;;5014818;28;20041;-71
2020/12/12 06:35:43;;;;;;;9.68;8.15;;;5.40;99.90;;;;;;5015030;28;20026;-72
2020/12/12 06:38:26;;;;;;;14.63;8.77;;;5.50;99.90;;;;;;5013280;28;20046;-73
2020/12/12 06:40:57;;;;;;;12.32;9.38;;;5.70;99.90;;;;;;5013876;28;20099;-72
2020/12/12 06:43:34;;;;;;;11.68;8.52;;;5.50;99.90;;;;;;5013805;28;20060;-72
2020/12/12 06:46:05;;;;;;;10.43;8.13;;;5.50;99.90;;;;;;5014013;28;20038;-72
2020/12/12 06:48:32;;;;;;;13.82;8.73;;;5.50;99.90;;;;;;5014165;28;20047;-71
2020/12/12 06:50:59;;;;;;;9.85;7.90;;;5.60;99.90;;;;;;5014166;28;20025;-71
2020/12/12 06:53:26;;;;;;;10.65;8.57;;;5.50;99.90;;;;;;5013914;28;20046;-72
2020/12/12 06:56:15;;;;;;;12.40;7.78;;;5.50;99.90;;;;;;5013865;28;20040;-73
2020/12/12 06:58:42;;;;;;;10.60;8.30;;;5.40;99.90;;;;;;5013982;28;20026;-73
2020/12/12 07:01:33;;;;;;;10.65;9.55;;;5.30;99.90;;;;;;5013812;28;20132;-74
2020/12/12 07:04:01;;;;;;;10.05;7.57;;;5.50;99.90;;;;;;5027116;28;20026;-72
2020/12/12 07:06:28;;;;;;;10.70;8.57;;;5.60;99.90;;;;;;5014533;28;20080;-71
2020/12/12 07:08:58;;;;;;;10.18;7.47;;;5.50;99.90;;;;;;5030003;28;20476;-73
2020/12/12 07:11:25;;;;;;;10.48;8.52;;;5.60;99.90;;;;;;5013693;28;20050;-72
2020/12/12 07:13:52;;;;;;;11.50;8.63;;;5.70;99.90;;;;;;5013436;28;20041;-72
2020/12/12 07:16:19;;;;;;;10.82;8.45;;;5.80;99.90;;;;;;5014564;28;20065;-73
2020/12/12 07:18:44;;;;;;;10.70;8.20;;;5.60;99.90;;;;;;5013809;28;20084;-72
2020/12/12 07:21:11;;;;;;;9.52;8.55;;;5.60;99.90;;;;;;5013712;28;20033;-72
2020/12/12 07:23:39;;;;;;;16.10;9.20;;;5.40;99.90;;;;;;5013386;28;20464;-73
2020/12/12 07:26:05;;;;;;;10.23;7.90;;;5.40;99.90;;;;;;5013534;28;20105;-72
2020/12/12 07:28:31;;;;;;;13.45;9.52;;;5.40;99.90;;;;;;5013100;28;20034;-72
2020/12/12 07:30:57;;;;;;;7.95;7.15;;;5.40;99.90;;;;;;4997928;28;20056;-73
2020/12/12 07:33:22;;;;;;;7.90;7.10;;;5.40;99.90;;;;;;5015687;28;20120;-74
2020/12/12 07:35:48;;;;;;;9.55;8.55;;;5.30;99.90;;;;;;5013355;28;20035;-73
2020/12/12 07:38:13;;;;;;;9.38;8.13;;;5.30;99.90;;;;;;5013060;28;20030;-73
2020/12/12 07:40:39;;;;;;;10.43;7.45;;;5.30;99.90;;;;;;5013411;28;20029;-72
2020/12/12 07:43:08;;;;;;;6.60;5.88;;;5.30;99.90;;;;;;5015070;28;20026;-73
2020/12/12 07:45:49;;;;;;;9.77;7.90;;;5.40;99.90;;;;;;4996501;28;20022;-71
2020/12/12 07:48:16;;;;;;;12.50;8.05;;;5.50;99.90;;;;;;5015226;28;20038;-71
2020/12/12 07:50:42;;;;;;;9.25;7.93;;;5.40;99.90;;;;;;5014273;28;20045;-73
2020/12/12 07:53:13;;;;;;;9.73;8.23;;;5.40;99.90;;;;;;5016081;28;20022;-73
2020/12/12 07:55:45;;;;;;;13.55;8.57;;;5.40;99.90;;;;;;5018055;28;20029;-73
2020/12/12 07:58:19;;;;;;;9.05;8.05;;;5.40;99.90;;;;;;5031873;28;20018;-74
2020/12/12 08:00:44;;;;;;;9.55;7.80;;;5.40;99.90;;;;;;5018429;28;20057;-74
2020/12/12 08:03:10;;;;;;;11.23;7.70;;;5.40;99.90;;;;;;4997730;28;20054;-73
2020/12/12 08:05:36;;;;;;;16.10;7.60;;;5.50;99.90;;;;;;5019289;28;20064;-74
2020/12/12 08:08:10;;;;;;;9.68;8.13;;;5.50;99.90;;;;;;5021088;28;20506;-74
2020/12/12 08:10:36;;;;;;;8.82;7.55;;;5.50;99.90;;;;;;5013975;28;20022;-73
2020/12/12 08:13:02;;;;;;;6.88;5.93;;;5.60;99.90;;;;;;5013175;28;20485;-71
2020/12/12 08:15:45;;;;;;;7.15;5.68;;;5.60;99.90;;;;;;5013439;28;20022;-75
2020/12/12 08:18:12;;;;;;;6.63;5.90;;;5.60;99.90;;;;;;4998803;28;20079;-72
2020/12/12 08:20:38;;;;;;;7.40;5.95;;;5.70;99.90;;;;;;5021658;28;20034;-75
2020/12/12 08:23:05;;;;;;;7.07;5.45;;;5.80;99.90;;;;;;4999463;28;20030;-71
2020/12/12 08:25:31;;;;;;;7.35;4.60;;;5.80;99.90;;;;;;4980657;28;20018;-74
2020/12/12 08:27:57;;;;;;;5.00;4.45;;;5.80;99.90;;;;;;5022479;28;20042;-74
2020/12/12 08:30:25;;;;;;;8.30;6.72;;;5.80;99.90;;;;;;4999518;28;20034;-74
2020/12/12 08:32:50;;;;;;;6.88;4.90;;;5.90;99.90;;;;;;5013879;28;20033;-73
2020/12/12 08:35:25;;;;;;;5.85;4.60;;;5.90;99.90;;;;;;5009528;28;20416;-73
2020/12/12 08:37:55;;;;;;;6.03;4.25;;;6.00;99.90;;;;;;4995202;28;20026;-73
2020/12/12 08:40:21;;;;;;;5.68;4.68;;;6.00;99.90;;;;;;5013247;28;20033;-73
2020/12/12 08:42:55;;;;;;;4.47;4.07;;;6.00;99.90;;;;;;4995629;28;20109;-72
2020/12/12 08:45:21;;;;;;;5.25;4.75;;;6.00;99.90;;;;;;4995846;28;20026;-73
2020/12/12 08:47:46;;;;;;;5.82;5.20;;;6.10;99.90;;;;;;5012460;28;20499;-71
2020/12/12 08:50:12;;;;;;;10.00;5.45;;;6.10;99.90;;;;;;5012493;28;20041;-71
2020/12/12 08:52:40;;;;;;;5.65;5.15;;;6.00;99.90;;;;;;4994907;28;20026;-72
2020/12/12 08:55:06;;;;;;;6.82;4.57;;;6.10;99.90;;;;;;5004633;28;20100;-73
2020/12/12 08:57:31;;;;;;;5.30;4.80;;;6.20;99.90;;;;;;5007936;28;20030;-71
2020/12/12 09:00:02;;;;;;;4.60;4.07;;;6.20;99.90;;;;;;4994721;28;20022;-71
2020/12/12 09:02:28;;;;;;;4.60;4.20;;;6.20;99.90;;;;;;5018981;28;20022;-71
2020/12/12 09:05:11;;;;;;;4.47;4.07;;;6.20;99.90;;;;;;5001575;28;20049;-72
2020/12/12 09:07:36;;;;;;;4.70;4.20;;;6.30;99.90;;;;;;5030368;28;20068;-71
2020/12/12 09:10:09;;;;;;;4.93;4.47;;;6.40;99.90;;;;;;5036094;28;20029;-72
2020/12/12 09:12:50;;;;;;;4.93;4.53;;;6.40;99.90;;;;;;5018438;28;20022;-72
2020/12/12 09:15:16;;;;;;;5.45;4.43;;;6.40;99.90;;;;;;5018608;28;20481;-72
2020/12/12 09:17:41;;;;;;;4.93;3.88;;;6.40;99.90;;;;;;5018202;28;20048;-74
2020/12/12 09:20:08;;;;;;;4.65;4.25;;;6.50;99.90;;;;;;5017721;28;20439;-72
2020/12/12 09:22:35;;;;;;;4.72;4.25;;;6.50;99.90;;;;;;5000875;28;20400;-73
2020/12/12 09:25:00;;;;;;;4.75;3.88;;;6.50;99.90;;;;;;5017896;28;20030;-71
2020/12/12 09:27:26;;;;;;;4.63;3.70;;;6.60;99.90;;;;;;5018382;28;20034;-74
2020/12/12 09:29:52;;;;;;;4.03;3.63;;;6.60;99.90;;;;;;5017974;28;20041;-73
2020/12/12 09:32:17;;;;;;;4.65;4.18;;;6.60;99.90;;;;;;5019664;28;20064;-72
2020/12/12 09:34:43;;;;;;;4.03;3.63;;;6.60;99.90;;;;;;5020057;28;20055;-72
2020/12/12 09:37:08;;;;;;;4.93;4.30;;;6.80;99.90;;;;;;5002112;28;20030;-72
2020/12/12 09:39:34;;;;;;;5.53;4.82;;;6.80;99.90;;;;;;5019514;28;20036;-74
2020/12/12 09:42:00;;;;;;;7.22;4.10;;;6.90;99.90;;;;;;5019579;28;20033;-72
2020/12/12 09:44:27;;;;;;;4.97;3.65;;;7.00;99.90;;;;;;5020285;28;20164;-72
2020/12/12 09:46:53;;;;;;;5.20;3.42;;;7.00;99.90;;;;;;5022980;28;20017;-72
2020/12/12 09:49:19;;;;;;;4.30;3.90;;;7.00;99.90;;;;;;5037201;28;20493;-73
2020/12/12 09:51:46;;;;;;;4.22;3.42;;;7.00;99.90;;;;;;5021541;28;20022;-73
2020/12/12 09:54:11;;;;;;;6.13;4.13;;;6.90;99.90;;;;;;5022818;28;20026;-71
2020/12/12 09:56:37;;;;;;;6.18;3.63;;;6.90;99.90;;;;;;5021446;28;20396;-73
2020/12/12 09:59:03;;;;;;;3.85;3.45;;;7.00;99.90;;;;;;5021410;28;20026;-72
2020/12/12 10:01:29;;;;;;;5.00;3.63;;;7.00;99.90;;;;;;5021413;28;20030;-72
2020/12/12 10:03:55;;;;;;;3.70;3.30;;;7.00;99.90;;;;;;5001915;28;20030;-72
2020/12/12 10:06:20;;;;;;;3.60;3.30;;;7.10;99.90;;;;;;5025160;28;20386;-74
2020/12/12 10:08:46;;;;;;;5.20;3.55;;;7.10;99.90;;;;;;5027317;28;20048;-73
2020/12/12 10:11:12;;;;;;;4.85;3.05;;;7.00;99.90;;;;;;5018756;28;20036;-72
2020/12/12 10:13:38;;;;;;;3.90;2.47;;;7.10;99.90;;;;;;5017632;28;20157;-73
2020/12/12 10:16:03;;;;;;;3.47;3.13;;;7.10;99.90;;;;;;5016254;28;20481;-73
2020/12/12 10:18:29;;;;;;;3.20;2.90;;;7.10;99.90;;;;;;5015183;28;20026;-73
2020/12/12 10:20:55;;;;;;;2.83;2.53;;;7.10;99.90;;;;;;5022067;28;20034;-73
2020/12/12 10:23:20;;;;;;;3.53;2.78;;;7.20;99.90;;;;;;5015425;28;20089;-72
2020/12/12 10:25:46;;;;;;;3.28;2.90;;;7.20;99.90;;;;;;5015257;28;20034;-71
2020/12/12 10:28:12;;;;;;;3.30;2.78;;;7.30;99.90;;;;;;5015212;28;20023;-73
2020/12/12 10:30:38;;;;;;;3.63;2.60;;;7.30;99.90;;;;;;5014476;28;20087;-73
2020/12/12 10:33:04;;;;;;;3.00;2.60;;;7.30;99.90;;;;;;5022132;28;20496;-73
2020/12/12 10:35:30;;;;;;;2.80;2.58;;;7.40;99.90;;;;;;5025299;28;20029;-72
2020/12/12 10:37:57;;;;;;;2.97;2.67;;;7.40;99.90;;;;;;5014734;28;20065;-74
2020/12/12 10:40:41;;;;;;;5.40;2.55;;;7.50;99.90;;;;;;5014948;28;20025;-73
2020/12/12 10:43:09;;;;;;;3.53;2.70;;;7.60;99.90;;;;;;5014461;28;20462;-73
2020/12/12 10:45:35;;;;;;;4.85;2.55;;;7.70;99.90;;;;;;5015462;28;20030;-71
2020/12/12 10:48:01;;;;;;;4.00;2.55;;;7.70;99.90;;;;;;5014061;28;20143;-73
2020/12/12 10:50:26;;;;;;;2.83;2.63;;;7.80;99.90;;;;;;5015195;28;20034;-72
2020/12/12 10:52:52;;;;;;;2.70;2.47;;;7.80;99.90;;;;;;5024334;28;20029;-74
2020/12/12 10:55:18;;;;;;;3.00;2.70;;;7.90;99.90;;;;;;5020366;28;20025;-73
2020/12/12 10:57:44;;;;;;;4.90;2.90;;;7.90;99.90;;;;;;5016055;28;20090;-72
2020/12/12 11:00:10;;;;;;;2.35;2.15;;;7.90;99.90;;;;;;5015619;28;20081;-73
2020/12/12 11:02:36;;;;;;;2.88;2.58;;;7.90;99.90;;;;;;5014328;28;20022;-73
2020/12/12 11:05:03;;;;;;;2.55;2.20;;;8.10;99.90;;;;;;5014399;28;20029;-73
2020/12/12 11:07:29;;;;;;;4.28;2.97;;;8.00;99.90;;;;;;5024625;28;20029;-73
2020/12/12 11:09:54;;;;;;;5.75;3.40;;;8.00;99.90;;;;;;5021119;28;20034;-73
2020/12/12 11:12:20;;;;;;;2.92;2.20;;;8.00;99.90;;;;;;5014435;28;20058;-73
2020/12/12 11:14:47;;;;;;;2.60;2.40;;;8.00;99.90;;;;;;4998399;28;20034;-73
2020/12/12 11:17:13;;;;;;;2.42;2.22;;;8.10;99.90;;;;;;5017914;28;20397;-73
2020/12/12 11:19:39;;;;;;;2.53;2.33;;;8.20;99.90;;;;;;5016170;28;20033;-73
2020/12/12 11:22:05;;;;;;;2.13;1.80;;;8.20;99.90;;;;;;5014618;28;20022;-72
2020/12/12 11:24:30;;;;;;;2.95;2.30;;;8.10;99.90;;;;;;5014151;28;20017;-72
2020/12/12 11:26:56;;;;;;;2.90;1.92;;;8.20;99.90;;;;;;5015124;28;20049;-71
2020/12/12 11:29:22;;;;;;;2.20;2.00;;;8.20;99.90;;;;;;5014844;28;20022;-73
2020/12/12 11:31:51;;;;;;;2.10;1.90;;;8.20;99.90;;;;;;5023306;28;20053;-73
2020/12/12 11:37:38;;;;;;;5.65;1.90;;;8.10;99.90;;;;;;5046003;28;20025;-70
2020/12/12 11:39:41;;;;;;;2.08;1.80;;;8.20;99.90;;;;;;5045668;28;20431;-69
2020/12/12 11:42:33;;;;;;;3.13;2.83;;;8.20;99.90;;;;;;5070920;28;20404;-69
2020/12/12 11:47:40;;;;;;;2.85;2.08;;;8.20;99.90;;;;;;5042858;28;20029;-71
2020/12/12 11:50:06;;;;;;;2.35;1.60;;;8.10;99.90;;;;;;5026143;28;20072;-71
2020/12/12 11:52:41;;;;;;;2.25;1.80;;;8.20;99.90;;;;;;5021471;28;20021;-69
2020/12/12 11:55:07;;;;;;;2.38;2.15;;;8.20;99.90;;;;;;5028541;28;20025;-72
2020/12/12 11:57:33;;;;;;;2.28;2.08;;;8.20;99.90;;;;;;5034723;28;20034;-72
2020/12/12 12:00:06;;;;;;;2.40;2.03;;;8.20;99.90;;;;;;5026395;28;20037;-70
2020/12/12 12:02:31;;;;;;;2.15;1.90;;;8.20;99.90;;;;;;5033022;28;20057;-72
2020/12/12 12:04:57;;;;;;;1.85;1.67;;;8.30;99.90;;;;;;5014843;28;20022;-71
2020/12/12 12:07:22;;;;;;;2.50;1.95;;;8.20;99.90;;;;;;5044758;28;20075;-72
2020/12/12 12:09:51;;;;;;;2.88;2.00;;;8.20;99.90;;;;;;5037625;28;20481;-71
2020/12/12 12:12:17;;;;;;;3.25;1.92;;;8.30;99.90;;;;;;5019296;28;20077;-70
2020/12/12 12:14:42;;;;;;;4.20;2.28;;;8.30;99.90;;;;;;5035362;28;20109;-71
2020/12/12 12:17:08;;;;;;;4.15;2.47;;;8.30;99.90;;;;;;5043438;28;20076;-71
2020/12/12 12:19:33;;;;;;;3.03;1.65;;;8.30;99.90;;;;;;5034948;28;20037;-73
2020/12/12 12:21:59;;;;;;;2.15;1.80;;;8.30;99.90;;;;;;5050137;28;20056;-72
2020/12/12 12:24:25;;;;;;;3.42;1.75;;;8.20;99.90;;;;;;5034124;28;20043;-71
2020/12/12 12:26:51;;;;;;;3.05;1.70;;;8.20;99.90;;;;;;5017668;28;20060;-71
2020/12/12 12:29:18;;;;;;;2.22;1.92;;;8.20;99.90;;;;;;5019506;28;20029;-72
2020/12/12 12:31:46;;;;;;;2.25;2.05;;;8.30;99.90;;;;;;5034430;28;20022;-74
2020/12/12 12:34:12;;;;;;;4.60;2.60;;;8.20;99.90;;;;;;5032484;28;20039;-74
2020/12/12 12:36:38;;;;;;;4.07;2.00;;;8.30;99.90;;;;;;5033639;28;20029;-72
2020/12/12 12:39:06;;;;;;;3.13;2.13;;;8.20;99.90;;;;;;5034198;28;20021;-71
2020/12/12 12:41:32;;;;;;;4.60;2.88;;;8.20;99.90;;;;;;5034023;28;20052;-71
2020/12/12 12:44:00;;;;;;;4.93;2.13;;;8.20;99.90;;;;;;5034663;28;20083;-75
2020/12/12 12:46:35;;;;;;;7.93;2.30;;;8.20;99.90;;;;;;5049163;28;20498;-71
2020/12/12 12:49:01;;;;;;;4.25;2.63;;;8.20;99.90;;;;;;5038361;28;20049;-70
2020/12/12 12:51:27;;;;;;;2.97;2.50;;;8.30;99.90;;;;;;5044927;28;20592;-70
2020/12/12 12:53:54;;;;;;;2.97;2.65;;;8.20;99.90;;;;;;5054402;28;20033;-70
2020/12/12 12:56:26;;;;;;;3.83;2.70;;;8.20;99.90;;;;;;5053499;28;20078;-72